createdAt,value
2023-02-06T00:01:50.428Z,104112.59
2023-02-06T00:04:18.894Z,104120.13
2023-02-06T00:06:47.489Z,104119.94
2023-02-06T00:09:16.003Z,104115.44
2023-02-06T00:11:44.419Z,104124.19
2023-02-06T00:14:12.956Z,104124.91
2023-02-06T00:16:41.407Z,104127.75
2023-02-06T00:19:10.063Z,104126.75
2023-02-06T00:21:38.525Z,104129.88
2023-02-06T00:24:07.134Z,104121.00
2023-02-06T00:26:35.672Z,104121.53
2023-02-06T00:29:04.196Z,104124.06
2023-02-06T00:31:32.707Z,104131.59
2023-02-06T00:34:01.553Z,104124.25
2023-02-06T00:36:30.085Z,104124.78
2023-02-06T00:38:58.593Z,104126.72
2023-02-06T00:41:27.029Z,104115.22
2023-02-06T00:43:55.442Z,104109.66
2023-02-06T00:46:24.006Z,104111.78
2023-02-06T00:48:52.558Z,104106.75
2023-02-06T00:51:21.029Z,104102.38
2023-02-06T00:53:51.132Z,104097.59
2023-02-06T00:56:19.737Z,104111.66
2023-02-06T00:58:48.148Z,104119.25
2023-02-06T01:01:16.711Z,104113.56
2023-02-06T01:03:45.178Z,104114.13
2023-02-06T01:06:13.578Z,104111.25
2023-02-06T01:08:42.136Z,104110.84
2023-02-06T01:11:16.175Z,104111.13
2023-02-06T01:13:44.635Z,104109.72
2023-02-06T01:16:17.112Z,104120.78
2023-02-06T01:18:46.109Z,104130.47
2023-02-06T01:21:20.836Z,104139.03
2023-02-06T01:23:51.466Z,104137.59
2023-02-06T01:26:23.300Z,104132.31
2023-02-06T01:28:51.801Z,104140.44
2023-02-06T01:31:24.185Z,104143.34
2023-02-06T01:33:53.193Z,104130.97
2023-02-06T01:36:22.095Z,104124.00
2023-02-06T01:38:50.734Z,104122.34
2023-02-06T01:41:22.117Z,104110.03
2023-02-06T01:44:13.094Z,104110.66
2023-02-06T01:46:44.414Z,104119.63
2023-02-06T01:49:19.719Z,104112.59
2023-02-06T01:51:50.069Z,104115.97
2023-02-06T01:54:18.756Z,104121.19
2023-02-06T01:56:54.632Z,104120.75
2023-02-06T01:59:24.321Z,104118.66
2023-02-06T02:01:52.858Z,104119.88
2023-02-06T02:04:24.354Z,104121.59
2023-02-06T02:07:13.552Z,104128.28
2023-02-06T02:09:42.116Z,104138.00
2023-02-06T02:12:10.736Z,104124.34
2023-02-06T02:14:43.021Z,104128.25
2023-02-06T02:17:35.672Z,104126.53
2023-02-06T02:20:07.107Z,104129.38
2023-02-06T02:22:50.043Z,104127.03
2023-02-06T02:26:03.127Z,104123.44
2023-02-06T02:28:34.327Z,104116.47
2023-02-06T02:31:05.675Z,104123.25
2023-02-06T02:33:55.954Z,104120.78
2023-02-06T02:36:35.062Z,104115.69
2023-02-06T02:39:15.681Z,104109.72
2023-02-06T02:42:03.362Z,104105.19
2023-02-06T02:44:47.277Z,104093.94
2023-02-06T02:47:18.567Z,104104.22
2023-02-06T02:49:48.475Z,104101.09
2023-02-06T02:52:16.856Z,104094.50
2023-02-06T02:54:45.243Z,104093.28
2023-02-06T02:57:22.648Z,104086.97
2023-02-06T02:59:51.869Z,104078.84
2023-02-06T03:02:27.546Z,104089.41
2023-02-06T03:05:04.264Z,104085.81
2023-02-06T03:08:01.659Z,104094.38
2023-02-06T03:10:36.089Z,104088.50
2023-02-06T03:13:17.563Z,104085.81
2023-02-06T03:15:55.324Z,104084.72
2023-02-06T03:18:36.330Z,104082.97
2023-02-06T03:21:07.004Z,104075.09
2023-02-06T03:23:39.296Z,104071.97
2023-02-06T03:26:09.607Z,104075.75
2023-02-06T03:28:42.747Z,104072.66
2023-02-06T03:31:16.846Z,104075.75
2023-02-06T03:33:52.142Z,104074.03
2023-02-06T03:36:21.156Z,104076.44
2023-02-06T03:38:52.102Z,104077.63
2023-02-06T03:41:25.774Z,104068.81
2023-02-06T03:43:56.806Z,104080.97
2023-02-06T03:46:28.239Z,104066.81
2023-02-06T03:49:00.926Z,104064.22
2023-02-06T03:51:35.185Z,104060.41
2023-02-06T03:54:06.091Z,104065.44
2023-02-06T03:56:40.231Z,104063.03
2023-02-06T03:59:08.774Z,104063.53
2023-02-06T04:01:44.509Z,104058.88
2023-02-06T04:04:21.592Z,104061.91
2023-02-06T04:06:50.057Z,104067.09
2023-02-06T04:09:18.454Z,104066.16
2023-02-06T04:11:46.891Z,104067.91
2023-02-06T04:14:15.249Z,104084.75
2023-02-06T04:16:43.827Z,104077.50
2023-02-06T04:19:12.236Z,104079.44
2023-02-06T04:21:40.748Z,104085.06
2023-02-06T04:24:09.298Z,104073.44
2023-02-06T04:26:37.756Z,104063.81
2023-02-06T04:29:06.520Z,104064.31
2023-02-06T04:31:34.890Z,104062.47
2023-02-06T04:34:03.359Z,104062.72
2023-02-06T04:36:31.836Z,104064.66
2023-02-06T04:39:00.497Z,104063.91
2023-02-06T04:41:28.885Z,104065.81
2023-02-06T04:43:57.353Z,104063.34
2023-02-06T04:46:26.461Z,104063.84
2023-02-06T04:48:55.020Z,104044.97
2023-02-06T04:51:23.458Z,104053.84
2023-02-06T04:53:51.895Z,104056.94
2023-02-06T04:56:20.503Z,104067.16
2023-02-06T04:58:48.948Z,104065.13
2023-02-06T05:01:17.776Z,104066.81
2023-02-06T05:03:47.315Z,104073.97
2023-02-06T05:06:16.319Z,104081.69
2023-02-06T05:08:44.810Z,104076.81
2023-02-06T05:11:13.273Z,104082.09
2023-02-06T05:13:42.743Z,104081.91
2023-02-06T05:16:14.112Z,104068.63
2023-02-06T05:18:47.311Z,104072.22
2023-02-06T05:21:15.933Z,104083.91
2023-02-06T05:23:44.429Z,104086.34
2023-02-06T05:26:12.780Z,104080.97
2023-02-06T05:28:41.386Z,104081.63
2023-02-06T05:31:10.238Z,104079.44
2023-02-06T05:33:38.686Z,104070.34
2023-02-06T05:36:07.921Z,104067.75
2023-02-06T05:38:36.453Z,104069.00
2023-02-06T05:41:05.048Z,104073.22
2023-02-06T05:43:33.744Z,104070.41
2023-02-06T05:46:02.317Z,104088.00
2023-02-06T05:48:31.096Z,104087.94
2023-02-06T05:50:59.523Z,104093.34
2023-02-06T05:53:28.145Z,104095.75
2023-02-06T05:55:57.041Z,104099.69
2023-02-06T05:58:25.559Z,104105.44
2023-02-06T06:00:54.120Z,104102.19
2023-02-06T06:03:22.568Z,104101.97
2023-02-06T06:05:51.300Z,104104.28
2023-02-06T06:08:20.087Z,104113.91
2023-02-06T06:10:52.410Z,104112.16
2023-02-06T06:13:20.931Z,104110.41
2023-02-06T06:15:53.071Z,104109.63
2023-02-06T06:18:21.782Z,104106.09
2023-02-06T06:20:50.249Z,104100.09
2023-02-06T06:23:18.855Z,104108.03
2023-02-06T06:25:48.214Z,104113.91
2023-02-06T06:28:16.798Z,104113.44
2023-02-06T06:30:45.387Z,104116.22
2023-02-06T06:33:16.354Z,104116.31
2023-02-06T06:35:44.735Z,104110.66
2023-02-06T06:38:13.106Z,104101.72
2023-02-06T06:40:41.644Z,104096.63
2023-02-06T06:43:10.044Z,104108.88
2023-02-06T06:45:38.958Z,104101.50
2023-02-06T06:48:07.639Z,104101.00
2023-02-06T06:50:36.077Z,104095.69
2023-02-06T06:53:04.524Z,104093.84
2023-02-06T06:55:33.064Z,104099.63
2023-02-06T06:58:01.854Z,104097.19
2023-02-06T07:00:30.270Z,104100.28
2023-02-06T07:02:58.759Z,104092.81
2023-02-06T07:05:27.290Z,104085.44
2023-02-06T07:07:55.684Z,104071.81
2023-02-06T07:10:24.457Z,104074.03
2023-02-06T07:12:53.644Z,104073.41
2023-02-06T07:15:23.231Z,104068.16
2023-02-06T07:17:51.631Z,104070.41
2023-02-06T07:20:20.281Z,104065.19
2023-02-06T07:22:50.216Z,104060.31
2023-02-06T07:25:20.273Z,104060.31
2023-02-06T07:27:48.876Z,104059.63
2023-02-06T07:30:17.361Z,104053.72
2023-02-06T07:32:45.836Z,104052.91
2023-02-06T07:35:15.332Z,104051.84
2023-02-06T07:37:43.752Z,104048.31
2023-02-06T07:40:12.677Z,104051.41
2023-02-06T07:42:41.085Z,104054.72
2023-02-06T07:45:09.846Z,104049.88
2023-02-06T07:47:38.279Z,104039.75
2023-02-06T07:50:07.144Z,104040.25
2023-02-06T07:52:35.608Z,104039.63
2023-02-06T07:55:04.466Z,104039.44
2023-02-06T07:57:32.826Z,104036.44
2023-02-06T08:00:01.323Z,104043.28
2023-02-06T08:02:29.853Z,104038.91
2023-02-06T08:04:58.376Z,104024.09
2023-02-06T08:07:26.965Z,104026.28
2023-02-06T08:09:55.330Z,104023.88
2023-02-06T08:12:23.783Z,104019.41
2023-02-06T08:14:52.263Z,104023.88
2023-02-06T08:17:21.209Z,104029.22
2023-02-06T08:19:49.691Z,104030.06
2023-02-06T08:22:18.121Z,104036.88
2023-02-06T08:24:47.511Z,104028.84
2023-02-06T08:27:15.951Z,104040.78
2023-02-06T08:29:44.404Z,104036.13
2023-02-06T08:32:12.819Z,104033.31
2023-02-06T08:34:41.550Z,104033.88
2023-02-06T08:37:10.432Z,104038.28
2023-02-06T08:39:38.904Z,104035.00
2023-02-06T08:42:07.369Z,104046.69
2023-02-06T08:44:35.945Z,104055.81
2023-02-06T08:47:10.046Z,104031.88
2023-02-06T08:49:39.119Z,104030.72
2023-02-06T08:52:07.541Z,104029.47
2023-02-06T08:54:38.618Z,104018.00
2023-02-06T08:57:07.273Z,104009.28
2023-02-06T08:59:35.689Z,104013.38
2023-02-06T09:02:04.244Z,104009.28
2023-02-06T09:04:34.573Z,104010.91
2023-02-06T09:07:03.250Z,104016.44
2023-02-06T09:09:31.696Z,104016.78
2023-02-06T09:12:03.748Z,104021.34
2023-02-06T09:14:32.258Z,104013.31
2023-02-06T09:17:01.103Z,104011.97
2023-02-06T09:19:29.630Z,104006.22
2023-02-06T09:21:58.101Z,104008.84
2023-02-06T09:24:27.374Z,103997.19
2023-02-06T09:27:00.688Z,103997.50
2023-02-06T09:29:31.779Z,104008.00
2023-02-06T09:32:00.805Z,104007.38
2023-02-06T09:34:29.933Z,104004.69
2023-02-06T09:37:01.316Z,104006.31
2023-02-06T09:39:30.595Z,103994.59
2023-02-06T09:42:12.765Z,104002.66
2023-02-06T09:44:46.205Z,104006.03
2023-02-06T09:47:28.249Z,104001.09
2023-02-06T09:50:05.469Z,104012.56
2023-02-06T09:53:00.106Z,104014.47
2023-02-06T09:56:15.656Z,104013.53
2023-02-06T09:58:56.694Z,104021.25
2023-02-06T10:01:52.509Z,104029.13
2023-02-06T10:04:47.418Z,104022.22
2023-02-06T10:07:31.171Z,104028.34
2023-02-06T10:10:06.573Z,104028.72
2023-02-06T10:12:44.111Z,104021.28
2023-02-06T10:15:34.725Z,104029.69
2023-02-06T10:18:14.635Z,104023.78
2023-02-06T10:21:10.862Z,104032.06
2023-02-06T10:23:51.752Z,104031.97
2023-02-06T10:26:22.426Z,104042.75
2023-02-06T10:28:55.977Z,104045.13
2023-02-06T10:31:24.444Z,104034.66
2023-02-06T10:33:55.777Z,104033.22
2023-02-06T10:36:45.988Z,104026.72
2023-02-06T10:39:38.769Z,104038.94
2023-02-06T10:42:50.886Z,104026.41
2023-02-06T10:45:34.175Z,104030.06
2023-02-06T10:48:19.152Z,104031.88
2023-02-06T10:50:55.014Z,104020.88
2023-02-06T10:53:31.905Z,104029.97
2023-02-06T10:56:08.301Z,104024.81
2023-02-06T10:58:48.468Z,104021.09
2023-02-06T11:01:26.102Z,104025.69
2023-02-06T11:04:20.009Z,104027.94
2023-02-06T11:06:48.394Z,104024.19
2023-02-06T11:09:16.872Z,104018.00
2023-02-06T11:11:48.478Z,104006.69
2023-02-06T11:14:24.970Z,104009.28
2023-02-06T11:16:54.179Z,104002.81
2023-02-06T11:19:30.223Z,104006.00
2023-02-06T11:22:04.622Z,104014.88
2023-02-06T11:24:34.337Z,104006.78
2023-02-06T11:27:13.273Z,104017.50
2023-02-06T11:29:50.939Z,104017.06
2023-02-06T11:32:43.872Z,104017.69
2023-02-06T11:35:33.531Z,104022.19
2023-02-06T11:38:16.308Z,104010.53
2023-02-06T11:40:56.796Z,104011.38
2023-02-06T11:43:28.262Z,104000.63
2023-02-06T11:46:35.075Z,104010.69
2023-02-06T11:49:23.096Z,104006.69
2023-02-06T11:51:53.829Z,104010.03
2023-02-06T11:54:31.565Z,104001.06
2023-02-06T11:57:20.145Z,103995.94
2023-02-06T11:59:52.979Z,104000.38
2023-02-06T12:02:31.161Z,104001.56
2023-02-06T12:05:07.126Z,103985.81
2023-02-06T12:07:39.697Z,103986.28
2023-02-06T12:10:17.255Z,103986.94
2023-02-06T12:12:57.811Z,103983.81
2023-02-06T12:15:46.481Z,103982.50
2023-02-06T12:18:17.863Z,103973.66
2023-02-06T12:21:12.825Z,103965.66
2023-02-06T12:23:47.211Z,103959.88
2023-02-06T12:26:19.140Z,103952.91
2023-02-06T12:29:02.291Z,103967.03
2023-02-06T12:32:08.812Z,103955.44
2023-02-06T12:35:00.394Z,103962.91
2023-02-06T12:37:42.417Z,103959.56
2023-02-06T12:40:29.505Z,103957.03
2023-02-06T12:43:06.851Z,103951.47
2023-02-06T12:46:01.060Z,103944.69
2023-02-06T12:48:35.277Z,103945.72
2023-02-06T12:51:19.431Z,103953.88
2023-02-06T12:54:00.860Z,103948.88
2023-02-06T12:56:38.816Z,103947.91
2023-02-06T12:59:10.190Z,103941.97
2023-02-06T13:01:58.064Z,103934.31
2023-02-06T13:04:31.456Z,103927.84
2023-02-06T13:07:08.528Z,103931.16
2023-02-06T13:09:41.894Z,103923.75
2023-02-06T13:12:19.951Z,103927.47
2023-02-06T13:15:10.198Z,103925.25
2023-02-06T13:17:45.085Z,103919.03
2023-02-06T13:20:17.172Z,103917.28
2023-02-06T13:23:11.765Z,103899.19
2023-02-06T13:25:40.128Z,103899.63
2023-02-06T13:28:21.689Z,103898.50
2023-02-06T13:31:03.371Z,103888.78
2023-02-06T13:34:00.127Z,103885.13
2023-02-06T13:36:44.260Z,103887.72
2023-02-06T13:39:21.552Z,103880.16
2023-02-06T13:41:51.245Z,103884.09
2023-02-06T13:44:33.749Z,103872.56
2023-02-06T13:47:20.446Z,103883.78
2023-02-06T13:50:27.716Z,103880.63
2023-02-06T13:53:24.941Z,103881.84
2023-02-06T13:56:13.145Z,103881.41
2023-02-06T13:58:51.765Z,103884.28
2023-02-06T14:01:30.074Z,103889.84
2023-02-06T14:03:59.516Z,103897.22
2023-02-06T14:06:46.146Z,103880.81
2023-02-06T14:09:40.080Z,103882.25
2023-02-06T14:12:56.825Z,103876.50
2023-02-06T14:15:43.646Z,103882.06
2023-02-06T14:18:30.073Z,103885.13
2023-02-06T14:21:17.102Z,103888.91
2023-02-06T14:24:15.450Z,103878.13
2023-02-06T14:27:00.820Z,103876.13
2023-02-06T14:29:41.078Z,103887.44
2023-02-06T14:32:35.676Z,103884.44
2023-02-06T14:35:31.590Z,103875.22
2023-02-06T14:38:37.774Z,103880.03
2023-02-06T14:41:06.826Z,103886.56
2023-02-06T14:43:40.278Z,103887.91
2023-02-06T14:46:13.451Z,103898.66
2023-02-06T14:48:54.890Z,103893.25
2023-02-06T14:51:37.130Z,103906.25
2023-02-06T14:54:29.425Z,103901.25
2023-02-06T14:57:00.298Z,103903.47
2023-02-06T14:59:30.092Z,103905.09
2023-02-06T15:01:59.777Z,103902.69
2023-02-06T15:04:29.958Z,103904.69
2023-02-06T15:07:02.026Z,103904.22
2023-02-06T15:09:33.542Z,103898.28
2023-02-06T15:12:21.171Z,103889.91
2023-02-06T15:14:52.324Z,103893.31
2023-02-06T15:17:22.777Z,103894.06
2023-02-06T15:19:52.690Z,103885.06
2023-02-06T15:22:30.234Z,103878.94
2023-02-06T15:25:37.996Z,103884.03
2023-02-06T15:28:16.327Z,103890.03
2023-02-06T15:30:45.590Z,103887.81
2023-02-06T15:33:21.466Z,103894.22
2023-02-06T15:35:53.161Z,103886.75
2023-02-06T15:38:24.288Z,103882.94
2023-02-06T15:41:15.125Z,103891.81
2023-02-06T15:43:46.871Z,103890.09
2023-02-06T15:46:15.820Z,103894.13
2023-02-06T15:48:48.193Z,103890.22
2023-02-06T15:51:21.637Z,103897.13
2023-02-06T15:53:52.187Z,103890.63
2023-02-06T15:56:28.581Z,103876.16
2023-02-06T15:59:00.833Z,103875.66
2023-02-06T16:01:30.952Z,103880.84
2023-02-06T16:04:05.255Z,103868.50
2023-02-06T16:06:34.010Z,103866.09
2023-02-06T16:09:06.337Z,103868.94
2023-02-06T16:11:47.427Z,103873.72
2023-02-06T16:14:37.694Z,103863.84
2023-02-06T16:17:26.452Z,103871.00
2023-02-06T16:19:58.173Z,103867.00
2023-02-06T16:22:31.075Z,103873.59
2023-02-06T16:25:25.717Z,103877.28
2023-02-06T16:27:54.595Z,103875.63
2023-02-06T16:30:28.312Z,103874.38
2023-02-06T16:32:59.580Z,103871.13
2023-02-06T16:35:28.078Z,103879.28
2023-02-06T16:37:57.390Z,103886.00
2023-02-06T16:40:26.224Z,103882.75
2023-02-06T16:42:54.832Z,103878.41
2023-02-06T16:45:26.252Z,103872.75
2023-02-06T16:47:55.269Z,103881.00
2023-02-06T16:50:23.902Z,103867.19
2023-02-06T16:52:57.873Z,103868.78
2023-02-06T16:55:27.228Z,103875.63
2023-02-06T16:57:59.612Z,103862.19
2023-02-06T17:00:31.347Z,103868.09
2023-02-06T17:03:00.284Z,103870.63
2023-02-06T17:05:29.016Z,103870.63
2023-02-06T17:07:57.734Z,103866.31
2023-02-06T17:10:26.691Z,103879.16
2023-02-06T17:12:55.276Z,103876.00
2023-02-06T17:15:23.801Z,103878.28
2023-02-06T17:17:54.819Z,103886.19
2023-02-06T17:20:37.324Z,103878.91
2023-02-06T17:23:06.896Z,103876.47
2023-02-06T17:25:35.497Z,103881.09
2023-02-06T17:28:07.530Z,103878.78
2023-02-06T17:30:38.110Z,103886.09
2023-02-06T17:33:07.183Z,103890.09
2023-02-06T17:35:36.889Z,103885.59
2023-02-06T17:38:07.632Z,103892.44
2023-02-06T17:40:37.900Z,103883.69
2023-02-06T17:43:07.127Z,103892.81
2023-02-06T17:45:38.885Z,103900.22
2023-02-06T17:48:08.348Z,103904.53
2023-02-06T17:50:39.342Z,103891.38
2023-02-06T17:53:11.929Z,103884.38
2023-02-06T17:55:41.144Z,103883.31
2023-02-06T17:58:09.755Z,103880.28
2023-02-06T18:00:38.930Z,103878.94
2023-02-06T18:03:07.689Z,103871.28
2023-02-06T18:05:37.362Z,103866.97
2023-02-06T18:08:05.999Z,103863.88
2023-02-06T18:10:34.490Z,103854.09
2023-02-06T18:13:02.999Z,103851.69
2023-02-06T18:15:31.977Z,103852.81
2023-02-06T18:18:00.485Z,103861.13
2023-02-06T18:20:28.996Z,103865.19
2023-02-06T18:22:57.701Z,103858.06
2023-02-06T18:25:26.143Z,103853.34
2023-02-06T18:27:54.647Z,103856.72
2023-02-06T18:30:23.222Z,103853.69
2023-02-06T18:32:51.706Z,103846.41
2023-02-06T18:35:20.246Z,103847.69
2023-02-06T18:37:50.022Z,103841.28
2023-02-06T18:40:18.931Z,103832.72
2023-02-06T18:42:56.160Z,103837.75
2023-02-06T18:45:31.201Z,103841.91
2023-02-06T18:48:04.597Z,103841.28
2023-02-06T18:50:34.541Z,103851.84
2023-02-06T18:53:03.615Z,103852.44
2023-02-06T18:55:34.998Z,103842.38
2023-02-06T18:58:06.931Z,103829.00
2023-02-06T19:00:37.794Z,103828.31
2023-02-06T19:03:08.547Z,103824.28
2023-02-06T19:05:37.472Z,103839.13
2023-02-06T19:08:06.118Z,103830.22
2023-02-06T19:10:34.765Z,103816.25
2023-02-06T19:13:03.319Z,103821.13
2023-02-06T19:15:34.334Z,103818.94
2023-02-06T19:18:04.423Z,103811.84
2023-02-06T19:20:32.858Z,103816.97
2023-02-06T19:23:01.351Z,103813.25
2023-02-06T19:25:30.357Z,103817.34
2023-02-06T19:27:58.872Z,103816.00
2023-02-06T19:30:27.349Z,103818.91
2023-02-06T19:32:55.827Z,103822.19
2023-02-06T19:35:24.312Z,103824.44
2023-02-06T19:37:52.786Z,103826.88
2023-02-06T19:40:21.241Z,103827.88
2023-02-06T19:42:49.738Z,103824.78
2023-02-06T19:45:18.304Z,103828.81
2023-02-06T19:47:46.816Z,103825.38
2023-02-06T19:50:15.267Z,103828.56
2023-02-06T19:52:43.704Z,103815.41
2023-02-06T19:55:12.185Z,103824.06
2023-02-06T19:57:40.794Z,103832.84
2023-02-06T20:00:09.890Z,103830.41
2023-02-06T20:02:39.472Z,103829.63
2023-02-06T20:05:08.419Z,103831.66
2023-02-06T20:07:36.941Z,103830.00
2023-02-06T20:10:05.955Z,103826.97
2023-02-06T20:12:34.544Z,103836.75
2023-02-06T20:15:02.952Z,103840.75
2023-02-06T20:17:31.401Z,103835.31
2023-02-06T20:19:59.971Z,103831.78
2023-02-06T20:22:28.862Z,103832.31
2023-02-06T20:24:57.459Z,103841.47
2023-02-06T20:27:26.554Z,103837.66
2023-02-06T20:29:55.145Z,103847.38
2023-02-06T20:32:24.265Z,103847.28
2023-02-06T20:34:52.889Z,103847.22
2023-02-06T20:37:21.611Z,103837.19
2023-02-06T20:39:50.089Z,103834.84
2023-02-06T20:42:22.256Z,103827.78
2023-02-06T20:44:51.446Z,103831.06
2023-02-06T20:47:19.924Z,103830.06
2023-02-06T20:49:48.398Z,103828.94
2023-02-06T20:52:17.049Z,103838.97
2023-02-06T20:54:45.490Z,103838.19
2023-02-06T20:57:15.318Z,103835.59
2023-02-06T20:59:43.859Z,103839.13
2023-02-06T21:02:12.384Z,103830.16
2023-02-06T21:04:40.830Z,103831.88
2023-02-06T21:07:09.372Z,103830.59
2023-02-06T21:09:37.839Z,103825.41
2023-02-06T21:12:06.546Z,103833.97
2023-02-06T21:14:35.338Z,103833.97
2023-02-06T21:17:04.072Z,103828.09
2023-02-06T21:19:32.521Z,103823.91
2023-02-06T21:22:01.764Z,103827.53
2023-02-06T21:24:30.401Z,103824.34
2023-02-06T21:26:58.880Z,103832.47
2023-02-06T21:29:27.383Z,103830.75
2023-02-06T21:32:07.435Z,103818.97
2023-02-06T21:34:41.736Z,103826.13
2023-02-06T21:37:10.235Z,103820.59
2023-02-06T21:39:40.833Z,103821.91
2023-02-06T21:42:11.384Z,103815.97
2023-02-06T21:44:40.037Z,103811.44
2023-02-06T21:47:09.942Z,103808.59
2023-02-06T21:49:38.352Z,103790.41
2023-02-06T21:52:06.782Z,103804.03
2023-02-06T21:54:35.345Z,103786.56
2023-02-06T21:57:04.436Z,103790.03
2023-02-06T21:59:34.010Z,103790.16
2023-02-06T22:02:02.640Z,103783.34
2023-02-06T22:04:31.196Z,103778.75
2023-02-06T22:06:59.699Z,103778.38
2023-02-06T22:09:28.393Z,103778.91
2023-02-06T22:11:56.909Z,103770.97
2023-02-06T22:14:26.380Z,103769.41
2023-02-06T22:16:54.902Z,103770.09
2023-02-06T22:19:23.397Z,103777.41
2023-02-06T22:21:51.907Z,103769.78
2023-02-06T22:24:20.377Z,103766.41
2023-02-06T22:26:48.943Z,103774.94
2023-02-06T22:29:17.974Z,103772.97
2023-02-06T22:31:46.724Z,103769.69
2023-02-06T22:34:18.202Z,103771.53
2023-02-06T22:36:47.557Z,103778.53
2023-02-06T22:39:16.108Z,103774.28
2023-02-06T22:41:45.864Z,103778.19
2023-02-06T22:44:18.073Z,103787.19
2023-02-06T22:46:48.217Z,103786.50
2023-02-06T22:49:17.281Z,103783.88
2023-02-06T22:51:46.253Z,103787.41
2023-02-06T22:54:14.974Z,103783.66
2023-02-06T22:56:44.204Z,103779.19
2023-02-06T22:59:12.680Z,103781.00
2023-02-06T23:01:49.199Z,103775.72
2023-02-06T23:04:23.161Z,103775.56
2023-02-06T23:06:52.396Z,103777.91
2023-02-06T23:09:32.682Z,103772.19
2023-02-06T23:12:02.045Z,103773.28
2023-02-06T23:14:32.118Z,103771.88
2023-02-06T23:17:02.085Z,103775.16
2023-02-06T23:19:30.705Z,103778.41
2023-02-06T23:21:59.267Z,103780.09
2023-02-06T23:24:28.016Z,103779.13
2023-02-06T23:26:56.503Z,103786.34
2023-02-06T23:29:24.966Z,103790.31
2023-02-06T23:31:53.832Z,103790.00
2023-02-06T23:34:24.197Z,103794.72
2023-02-06T23:36:53.108Z,103797.41
2023-02-06T23:39:21.680Z,103786.56
2023-02-06T23:41:50.208Z,103792.31
2023-02-06T23:44:19.170Z,103795.44
2023-02-06T23:46:47.824Z,103797.53
2023-02-06T23:49:16.248Z,103812.28
2023-02-06T23:51:44.759Z,103796.88
2023-02-06T23:54:13.221Z,103807.25
2023-02-06T23:56:41.679Z,103809.97
2023-02-06T23:59:10.456Z,103801.88
